Time;durP1;ratioP1;P1;durP2;ratioP2;P2;SDS_P1;SDS_P2;PMS_P1;PMS_P2;Temp;Humidity;BMP_temperature;BMP_pressure;BME280_temperature;BME280_humidity;BME280_pressure;Samples;Min_cycle;Max_cycle;Signal;HPM_P1;HPM_P2
2023/06/29 00:02:37;;;;;;;9.8;7.8;;;;;;;14.52;91.67;;;;;
2023/06/29 00:12:36;;;;;;;9.8;7.8;;;;;;;14.6;91.73;;;;;
2023/06/29 00:23:37;;;;;;;9.8;7.8;;;;;;;14.56;92.03;;;;;
2023/06/29 00:34:37;;;;;;;12.7;9.4;;;;;;;14.68;91.65;;;;;
2023/06/29 00:45:37;;;;;;;12.7;9.4;;;;;;;14.75;91.45;;;;;
2023/06/29 00:56:37;;;;;;;12.7;9.4;;;;;;;14.89;91.26;;;;;
2023/06/29 01:06:37;;;;;;;14.8;10.1;;;;;;;14.88;91.22;;;;;
2023/06/29 01:16:37;;;;;;;14.8;10.1;;;;;;;14.83;91.15;;;;;
2023/06/29 01:27:37;;;;;;;14.8;10.1;;;;;;;14.86;91.47;;;;;
2023/06/29 01:38:37;;;;;;;16.7;14;;;;;;;14.96;90.81;;;;;
2023/06/29 01:48:37;;;;;;;16.7;14;;;;;;;15.03;90.77;;;;;
2023/06/29 01:59:37;;;;;;;14.7;10.3;;;;;;;14.86;90.66;;;;;
2023/06/29 02:09:37;;;;;;;14.7;10.3;;;;;;;14.83;90.58;;;;;
2023/06/29 02:19:37;;;;;;;14.7;10.3;;;;;;;14.74;90.56;;;;;
2023/06/29 02:29:37;;;;;;;19.1;10.2;;;;;;;14.79;90.97;;;;;
2023/06/29 02:39:37;;;;;;;19.1;10.2;;;;;;;14.93;90.73;;;;;
2023/06/29 02:50:37;;;;;;;19.1;10.2;;;;;;;14.9;90.82;;;;;
2023/06/29 03:01:37;;;;;;;14.6;11.6;;;;;;;15.09;90.49;;;;;
2023/06/29 03:11:37;;;;;;;14.6;11.6;;;;;;;15.09;90.24;;;;;
2023/06/29 03:21:37;;;;;;;14.6;11.6;;;;;;;15.04;90.08;;;;;
2023/06/29 03:32:37;;;;;;;13.3;10.1;;;;;;;15.35;89.77;;;;;
2023/06/29 03:42:37;;;;;;;13.3;10.1;;;;;;;15.35;89.45;;;;;
2023/06/29 03:52:37;;;;;;;13.3;10.1;;;;;;;15.63;89.2;;;;;
2023/06/29 04:02:37;;;;;;;13.5;10.2;;;;;;;15.61;88.46;;;;;
2023/06/29 04:13:37;;;;;;;13.5;10.2;;;;;;;15.84;88.42;;;;;
2023/06/29 04:24:37;;;;;;;13.5;10.2;;;;;;;15.77;87.92;;;;;
2023/06/29 04:34:37;;;;;;;17.1;12.2;;;;;;;15.85;87.95;;;;;
2023/06/29 04:45:37;;;;;;;17.1;12.2;;;;;;;15.79;87.99;;;;;
2023/06/29 04:56:37;;;;;;;17.1;12.2;;;;;;;16.24;87.55;;;;;
2023/06/29 05:07:37;;;;;;;22.5;16.9;;;;;;;16.5;86.08;;;;;
2023/06/29 05:17:37;;;;;;;22.5;16.9;;;;;;;16.88;85.69;;;;;
2023/06/29 05:28:37;;;;;;;22.5;16.2;;;;;;;16.86;85.19;;;;;
2023/06/29 05:39:37;;;;;;;22.5;16.2;;;;;;;17.02;84.92;;;;;
2023/06/29 05:49:37;;;;;;;22.5;16.2;;;;;;;16.84;84.81;;;;;
2023/06/29 05:59:37;;;;;;;17.8;12.7;;;;;;;17.1;84.75;;;;;
2023/06/29 06:09:37;;;;;;;17.8;12.7;;;;;;;17.25;84.37;;;;;
2023/06/29 06:20:37;;;;;;;17.8;12.7;;;;;;;17.64;83.5;;;;;
2023/06/29 06:30:37;;;;;;;15.8;12.2;;;;;;;18.19;81.01;;;;;
2023/06/29 06:41:37;;;;;;;15.8;12.2;;;;;;;19.09;76.96;;;;;
2023/06/29 06:52:37;;;;;;;15.8;12.2;;;;;;;19.51;76.66;;;;;
2023/06/29 07:02:37;;;;;;;15.2;12.6;;;;;;;19.56;74.37;;;;;
2023/06/29 07:13:37;;;;;;;15.2;12.6;;;;;;;19.41;74.49;;;;;
2023/06/29 07:23:37;;;;;;;15.2;12.6;;;;;;;19.71;74.49;;;;;
2023/06/29 07:33:37;;;;;;;13.9;10.6;;;;;;;19.98;74.41;;;;;
2023/06/29 07:44:37;;;;;;;13.9;10.6;;;;;;;20.2;71.54;;;;;
2023/06/29 07:54:37;;;;;;;13.9;10.6;;;;;;;20.54;72.21;;;;;
2023/06/29 08:04:37;;;;;;;13.1;9.5;;;;;;;20.55;70.25;;;;;
2023/06/29 08:14:37;;;;;;;13.1;9.5;;;;;;;20.77;70.45;;;;;
2023/06/29 08:25:37;;;;;;;13.1;9.5;;;;;;;20.9;69.63;;;;;
2023/06/29 08:36:37;;;;;;;13.2;10;;;;;;;21.54;67.71;;;;;
2023/06/29 08:47:37;;;;;;;13.2;10;;;;;;;21.41;69.1;;;;;
2023/06/29 08:58:37;;;;;;;14.5;9;;;;;;;21.53;64.02;;;;;
2023/06/29 09:08:37;;;;;;;14.5;9;;;;;;;21.21;66.18;;;;;
2023/06/29 09:18:38;;;;;;;14.5;9;;;;;;;21.46;65.6;;;;;
2023/06/29 09:29:37;;;;;;;13.3;10;;;;;;;21.42;65.63;;;;;
2023/06/29 09:40:38;;;;;;;13.3;10;;;;;;;21.52;66.45;;;;;
2023/06/29 09:50:37;;;;;;;13.3;10;;;;;;;21.67;64.6;;;;;
2023/06/29 10:01:37;;;;;;;16.1;10.3;;;;;;;21.3;67.71;;;;;
2023/06/29 10:11:37;;;;;;;16.1;10.3;;;;;;;21.7;64.39;;;;;
2023/06/29 10:21:37;;;;;;;16.1;10.3;;;;;;;22.19;62.94;;;;;
2023/06/29 10:32:37;;;;;;;11.8;9.4;;;;;;;22.57;61.63;;;;;
2023/06/29 10:42:37;;;;;;;11.8;9.4;;;;;;;22.87;63.83;;;;;
2023/06/29 10:53:38;;;;;;;11.8;9.4;;;;;;;23.72;61.65;;;;;
2023/06/29 11:03:37;;;;;;;12;9.3;;;;;;;23.97;59.05;;;;;
2023/06/29 11:14:37;;;;;;;12;9.3;;;;;;;24.3;56.7;;;;;
2023/06/29 11:24:37;;;;;;;12;9.3;;;;;;;23.88;57.37;;;;;
2023/06/29 11:34:37;;;;;;;11.7;8;;;;;;;23.31;56.98;;;;;
2023/06/29 11:45:37;;;;;;;11.7;8;;;;;;;24.02;56.12;;;;;
2023/06/29 11:56:37;;;;;;;11.7;8;;;;;;;23.53;56.17;;;;;
2023/06/29 12:06:37;;;;;;;9.7;6.5;;;;;;;23.82;56.84;;;;;
2023/06/29 12:17:37;;;;;;;9.7;6.5;;;;;;;24.29;54.39;;;;;
2023/06/29 12:27:37;;;;;;;9.7;6.5;;;;;;;24.23;53.39;;;;;
2023/06/29 12:38:37;;;;;;;8.1;5.9;;;;;;;24.57;53.9;;;;;
2023/06/29 12:49:37;;;;;;;8.1;5.9;;;;;;;24.85;49.67;;;;;
2023/06/29 13:00:37;;;;;;;7.6;5.2;;;;;;;25.12;50.09;;;;;
2023/06/29 13:10:37;;;;;;;7.6;5.2;;;;;;;25.55;47.61;;;;;
2023/06/29 13:20:37;;;;;;;7.6;5.2;;;;;;;25.96;49.01;;;;;
2023/06/29 13:31:37;;;;;;;6.7;3.7;;;;;;;25.52;48.32;;;;;
2023/06/29 13:42:37;;;;;;;6.7;3.7;;;;;;;25.77;51.16;;;;;
2023/06/29 13:52:37;;;;;;;6.7;3.7;;;;;;;25.58;46.21;;;;;
2023/06/29 14:02:37;;;;;;;6.6;3.8;;;;;;;25.77;45.26;;;;;
2023/06/29 14:12:37;;;;;;;6.6;3.8;;;;;;;26.07;46.8;;;;;
2023/06/29 14:23:37;;;;;;;6.6;3.8;;;;;;;26.47;44.55;;;;;
2023/06/29 14:34:37;;;;;;;6.6;4.6;;;;;;;26.67;46.31;;;;;
2023/06/29 14:46:11;;;;;;;6.6;4.6;;;;;;;27.17;45.87;;;;;
2023/06/29 14:56:11;;;;;;;6.6;4.6;;;;;;;27.49;44.16;;;;;
2023/06/29 15:06:12;;;;;;;5.7;3.8;;;;;;;28.88;44.73;;;;;
2023/06/29 15:17:11;;;;;;;5.7;3.8;;;;;;;30.4;39.27;;;;;
2023/06/29 15:27:11;;;;;;;5.7;3.8;;;;;;;32.49;36.2;;;;;
2023/06/29 15:38:12;;;;;;;8.3;4.4;;;;;;;33.14;35.72;;;;;
2023/06/29 15:48:11;;;;;;;8.3;4.4;;;;;;;34.06;33.56;;;;;
2023/06/29 15:58:11;;;;;;;8.3;4.4;;;;;;;33.93;32.89;;;;;
2023/06/29 16:08:12;;;;;;;6.8;3.7;;;;;;;33.85;33.25;;;;;
2023/06/29 16:19:14;;;;;;;6.8;3.7;;;;;;;33.76;32.89;;;;;
2023/06/29 16:30:12;;;;;;;7;3.5;;;;;;;34.87;31.15;;;;;
2023/06/29 16:41:11;;;;;;;7;3.5;;;;;;;34.1;32.68;;;;;
2023/06/29 16:51:11;;;;;;;7;3.5;;;;;;;33.71;32.93;;;;;
2023/06/29 17:02:12;;;;;;;5.6;3.2;;;;;;;33.6;32.39;;;;;
2023/06/29 17:12:11;;;;;;;5.6;3.2;;;;;;;30.3;37.04;;;;;
2023/06/29 17:23:11;;;;;;;5.6;3.2;;;;;;;27.79;42.1;;;;;
2023/06/29 17:34:11;;;;;;;9.9;4.3;;;;;;;27.75;43.03;;;;;
2023/06/29 17:44:11;;;;;;;9.9;4.3;;;;;;;29.92;39.07;;;;;
2023/06/29 17:54:11;;;;;;;9.9;4.3;;;;;;;31.27;36.6;;;;;
2023/06/29 18:04:11;;;;;;;7.1;3.6;;;;;;;30.64;36.9;;;;;
2023/06/29 18:15:11;;;;;;;7.1;3.6;;;;;;;28.15;40.92;;;;;
2023/06/29 18:25:11;;;;;;;7.1;3.6;;;;;;;26;46.3;;;;;
2023/06/29 18:36:11;;;;;;;6.1;3.8;;;;;;;24.37;49.85;;;;;
2023/06/29 18:46:11;;;;;;;6.1;3.8;;;;;;;23.12;54.15;;;;;
2023/06/29 18:56:11;;;;;;;6.1;3.8;;;;;;;22.04;58.05;;;;;
2023/06/29 19:06:11;;;;;;;7.3;4.3;;;;;;;21.36;60.52;;;;;
2023/06/29 19:16:12;;;;;;;7.3;4.3;;;;;;;20.75;61.52;;;;;
2023/06/29 19:27:12;;;;;;;7.3;4.3;;;;;;;20.11;62.29;;;;;
2023/06/29 19:38:11;;;;;;;7.8;5.2;;;;;;;19.64;64.59;;;;;
2023/06/29 19:48:11;;;;;;;7.8;5.2;;;;;;;19.34;65.3;;;;;
2023/06/29 19:58:11;;;;;;;7.8;5.2;;;;;;;18.91;65.12;;;;;
2023/06/29 20:08:11;;;;;;;6.4;4.2;;;;;;;18.59;67.05;;;;;
2023/06/29 20:19:11;;;;;;;;;;;;;;;18.16;69.67;;;;;
2023/06/29 20:29:11;;;;;;;6.6;5.8;;;;;;;17.94;70.75;;;;;
2023/06/29 20:40:11;;;;;;;6.6;5.8;;;;;;;17.78;71.26;;;;;
2023/06/29 20:51:11;;;;;;;9.7;5.7;;;;;;;17.54;71.54;;;;;
2023/06/29 21:02:12;;;;;;;9.7;5.7;;;;;;;17.23;74.61;;;;;
2023/06/29 21:12:12;;;;;;;9.7;5.7;;;;;;;16.97;74.33;;;;;
2023/06/29 21:22:11;;;;;;;9.8;6.2;;;;;;;16.89;74.34;;;;;
2023/06/29 21:33:12;;;;;;;9.8;6.2;;;;;;;16.78;75.04;;;;;
2023/06/29 21:44:11;;;;;;;9.8;6.2;;;;;;;16.64;75.87;;;;;
2023/06/29 21:54:13;;;;;;;9.5;6.7;;;;;;;16.64;75.88;;;;;
2023/06/29 22:05:12;;;;;;;9.5;6.7;;;;;;;16.55;76.32;;;;;
2023/06/29 22:15:12;;;;;;;9.5;6.7;;;;;;;16.49;77.12;;;;;
2023/06/29 22:26:12;;;;;;;7.7;5.5;;;;;;;16.41;77;;;;;
2023/06/29 22:36:13;;;;;;;7.7;5.5;;;;;;;16.37;77.5;;;;;
2023/06/29 22:46:11;;;;;;;7.7;5.5;;;;;;;16.27;78.6;;;;;
2023/06/29 22:56:11;;;;;;;8.2;6;;;;;;;16.17;78.97;;;;;
2023/06/29 23:06:12;;;;;;;8.2;6;;;;;;;16.12;79.32;;;;;
2023/06/29 23:16:12;;;;;;;8.2;6;;;;;;;16.05;79.28;;;;;
2023/06/29 23:27:11;;;;;;;10.5;7.5;;;;;;;15.88;80.81;;;;;
2023/06/29 23:38:11;;;;;;;10.5;7.5;;;;;;;15.9;81.31;;;;;
2023/06/29 23:48:11;;;;;;;10.5;7.5;;;;;;;15.85;81.75;;;;;
2023/06/29 23:58:11;;;;;;;9.8;7.8;;;;;;;15.8;82.14;;;;;
